Terminal Aerodrome Forecast
Issued by NWS Louisville, KY

Home | Current Version | Previous Version | Text Only | Print | Product List | Glossary On
Versions: 1 2 3 4 5 6 7 8 9 10 11 12 13 14 15 16 17 18 19 20
000
FTUS43 KLMK 030520
TAFLEX
TAF
KLEX 030520Z 0306/0406 33004KT P6SM SCT025 BKN035
     FM030900 33003KT 5SM BR SCT015 BKN025
      TEMPO 0310/0314 3SM BR BKN015
     FM031600 31006KT 6SM BR BKN025
     FM032100 29006KT P6SM BKN050=

USA.gov is the U.S. government's official web portal to all federal, state and local government web resources and services.